Terminal Aerodrome Forecast
Issued by NWS

Home | Current Version | Previous Version | Text Only | Print | Product List | Glossary On
Versions: 1 2 3 4 5 6 7 8 9 10 11 12 13 14 15
241
FTUS41 KBTV 192335
TAFMPV
TAF
KMPV 192335Z 2000/2024 30013G22KT P6SM VCSH BKN030
     FM200400 29011G21KT P6SM BKN025
     FM201300 29010G19KT P6SM BKN035
     FM201700 29014G23KT P6SM SCT110
     FM202200 28009KT P6SM SCT045=

USA.gov is the U.S. government's official web portal to all federal, state and local government web resources and services.